sensor_id;sensor_type;location;lat;lon;timestamp;P1;durP1;ratioP1;P2;durP2;ratioP2
14613;SDS011;7393;51.446;6.800;2023-02-12T00:00:18;56.27;;;33.43;;
14613;SDS011;7393;51.446;6.800;2023-02-12T00:02:45;51.07;;;32.53;;
14613;SDS011;7393;51.446;6.800;2023-02-12T00:05:12;51.73;;;32.13;;
14613;SDS011;7393;51.446;6.800;2023-02-12T00:07:41;55.57;;;31.87;;
14613;SDS011;7393;51.446;6.800;2023-02-12T00:10:08;53.40;;;31.83;;
14613;SDS011;7393;51.446;6.800;2023-02-12T00:12:36;52.47;;;32.07;;
14613;SDS011;7393;51.446;6.800;2023-02-12T00:15:03;48.30;;;30.93;;
14613;SDS011;7393;51.446;6.800;2023-02-12T00:17:30;48.67;;;31.27;;
14613;SDS011;7393;51.446;6.800;2023-02-12T00:19:57;48.07;;;31.73;;
14613;SDS011;7393;51.446;6.800;2023-02-12T00:22:23;47.17;;;30.77;;
14613;SDS011;7393;51.446;6.800;2023-02-12T00:24:51;50.33;;;31.30;;
14613;SDS011;7393;51.446;6.800;2023-02-12T00:27:18;50.33;;;31.53;;
14613;SDS011;7393;51.446;6.800;2023-02-12T00:29:45;47.43;;;31.47;;
14613;SDS011;7393;51.446;6.800;2023-02-12T00:32:12;51.70;;;30.93;;
14613;SDS011;7393;51.446;6.800;2023-02-12T00:34:43;52.53;;;30.80;;
14613;SDS011;7393;51.446;6.800;2023-02-12T00:37:10;48.33;;;30.53;;
14613;SDS011;7393;51.446;6.800;2023-02-12T00:39:37;47.07;;;30.10;;
14613;SDS011;7393;51.446;6.800;2023-02-12T00:42:05;47.03;;;30.60;;
14613;SDS011;7393;51.446;6.800;2023-02-12T00:44:32;47.80;;;30.87;;
14613;SDS011;7393;51.446;6.800;2023-02-12T00:46:59;49.73;;;30.80;;
14613;SDS011;7393;51.446;6.800;2023-02-12T00:49:26;45.37;;;30.30;;
14613;SDS011;7393;51.446;6.800;2023-02-12T00:51:53;53.27;;;30.87;;
14613;SDS011;7393;51.446;6.800;2023-02-12T00:54:20;47.20;;;30.70;;
14613;SDS011;7393;51.446;6.800;2023-02-12T00:56:46;47.00;;;29.13;;
14613;SDS011;7393;51.446;6.800;2023-02-12T00:59:15;45.90;;;30.13;;
14613;SDS011;7393;51.446;6.800;2023-02-12T01:01:41;49.60;;;29.90;;
14613;SDS011;7393;51.446;6.800;2023-02-12T01:04:08;47.53;;;30.47;;
14613;SDS011;7393;51.446;6.800;2023-02-12T01:06:35;51.27;;;32.47;;
14613;SDS011;7393;51.446;6.800;2023-02-12T01:09:02;51.67;;;32.37;;
14613;SDS011;7393;51.446;6.800;2023-02-12T01:11:28;48.63;;;30.77;;
14613;SDS011;7393;51.446;6.800;2023-02-12T01:13:55;47.57;;;30.43;;
14613;SDS011;7393;51.446;6.800;2023-02-12T01:16:23;49.30;;;30.80;;
14613;SDS011;7393;51.446;6.800;2023-02-12T01:18:50;47.77;;;30.03;;
14613;SDS011;7393;51.446;6.800;2023-02-12T01:21:20;48.10;;;30.83;;
14613;SDS011;7393;51.446;6.800;2023-02-12T01:23:49;47.13;;;29.83;;
14613;SDS011;7393;51.446;6.800;2023-02-12T01:26:16;46.07;;;30.97;;
14613;SDS011;7393;51.446;6.800;2023-02-12T01:28:47;45.10;;;29.73;;
14613;SDS011;7393;51.446;6.800;2023-02-12T01:31:15;51.20;;;30.43;;
14613;SDS011;7393;51.446;6.800;2023-02-12T01:33:47;48.73;;;31.17;;
14613;SDS011;7393;51.446;6.800;2023-02-12T01:36:15;48.87;;;29.43;;
14613;SDS011;7393;51.446;6.800;2023-02-12T01:38:41;44.03;;;29.03;;
14613;SDS011;7393;51.446;6.800;2023-02-12T01:41:10;46.90;;;29.40;;
14613;SDS011;7393;51.446;6.800;2023-02-12T01:43:38;47.10;;;29.50;;
14613;SDS011;7393;51.446;6.800;2023-02-12T01:46:05;45.73;;;28.63;;
14613;SDS011;7393;51.446;6.800;2023-02-12T01:48:35;44.43;;;29.17;;
14613;SDS011;7393;51.446;6.800;2023-02-12T01:51:06;49.00;;;29.83;;
14613;SDS011;7393;51.446;6.800;2023-02-12T01:53:38;46.20;;;29.77;;
14613;SDS011;7393;51.446;6.800;2023-02-12T01:56:08;47.60;;;31.40;;
14613;SDS011;7393;51.446;6.800;2023-02-12T01:58:36;48.50;;;31.00;;
14613;SDS011;7393;51.446;6.800;2023-02-12T02:01:07;46.47;;;29.50;;
14613;SDS011;7393;51.446;6.800;2023-02-12T02:03:38;49.77;;;31.20;;
14613;SDS011;7393;51.446;6.800;2023-02-12T02:06:09;51.43;;;32.03;;
14613;SDS011;7393;51.446;6.800;2023-02-12T02:08:39;49.63;;;32.20;;
14613;SDS011;7393;51.446;6.800;2023-02-12T02:11:06;58.80;;;33.27;;
14613;SDS011;7393;51.446;6.800;2023-02-12T02:13:47;50.50;;;31.93;;
14613;SDS011;7393;51.446;6.800;2023-02-12T02:16:31;54.07;;;31.70;;
14613;SDS011;7393;51.446;6.800;2023-02-12T02:19:01;50.03;;;32.83;;
14613;SDS011;7393;51.446;6.800;2023-02-12T02:21:43;54.77;;;32.10;;
14613;SDS011;7393;51.446;6.800;2023-02-12T02:24:35;54.23;;;32.90;;
14613;SDS011;7393;51.446;6.800;2023-02-12T02:27:26;52.50;;;31.60;;
14613;SDS011;7393;51.446;6.800;2023-02-12T02:33:03;50.00;;;31.00;;
14613;SDS011;7393;51.446;6.800;2023-02-12T02:35:39;52.63;;;30.60;;
14613;SDS011;7393;51.446;6.800;2023-02-12T02:38:14;51.83;;;31.80;;
14613;SDS011;7393;51.446;6.800;2023-02-12T02:40:48;48.80;;;31.17;;
14613;SDS011;7393;51.446;6.800;2023-02-12T02:43:22;49.37;;;31.13;;
14613;SDS011;7393;51.446;6.800;2023-02-12T02:45:54;51.53;;;32.00;;
14613;SDS011;7393;51.446;6.800;2023-02-12T02:48:26;53.10;;;32.30;;
14613;SDS011;7393;51.446;6.800;2023-02-12T02:50:59;57.23;;;33.37;;
14613;SDS011;7393;51.446;6.800;2023-02-12T02:53:31;50.80;;;32.83;;
14613;SDS011;7393;51.446;6.800;2023-02-12T02:56:02;52.13;;;32.37;;
14613;SDS011;7393;51.446;6.800;2023-02-12T02:58:34;51.90;;;33.00;;
14613;SDS011;7393;51.446;6.800;2023-02-12T03:01:05;54.30;;;34.37;;
14613;SDS011;7393;51.446;6.800;2023-02-12T03:03:39;50.00;;;32.47;;
14613;SDS011;7393;51.446;6.800;2023-02-12T03:06:11;52.27;;;33.53;;
14613;SDS011;7393;51.446;6.800;2023-02-12T03:08:45;50.60;;;31.90;;
14613;SDS011;7393;51.446;6.800;2023-02-12T03:11:16;53.33;;;32.93;;
14613;SDS011;7393;51.446;6.800;2023-02-12T03:13:48;53.43;;;32.47;;
14613;SDS011;7393;51.446;6.800;2023-02-12T03:16:21;54.53;;;33.37;;
14613;SDS011;7393;51.446;6.800;2023-02-12T03:18:52;53.33;;;32.40;;
14613;SDS011;7393;51.446;6.800;2023-02-12T03:21:26;54.20;;;32.27;;
14613;SDS011;7393;51.446;6.800;2023-02-12T03:24:00;48.17;;;30.93;;
14613;SDS011;7393;51.446;6.800;2023-02-12T03:26:35;49.10;;;31.03;;
14613;SDS011;7393;51.446;6.800;2023-02-12T03:29:07;53.53;;;32.50;;
14613;SDS011;7393;51.446;6.800;2023-02-12T03:31:37;56.57;;;32.20;;
14613;SDS011;7393;51.446;6.800;2023-02-12T03:34:15;54.23;;;33.37;;
14613;SDS011;7393;51.446;6.800;2023-02-12T03:36:49;52.07;;;33.43;;
14613;SDS011;7393;51.446;6.800;2023-02-12T03:39:20;56.13;;;34.60;;
14613;SDS011;7393;51.446;6.800;2023-02-12T03:41:55;54.03;;;33.33;;
14613;SDS011;7393;51.446;6.800;2023-02-12T03:44:30;51.07;;;31.60;;
14613;SDS011;7393;51.446;6.800;2023-02-12T03:47:14;52.87;;;31.80;;
14613;SDS011;7393;51.446;6.800;2023-02-12T03:49:48;52.60;;;31.27;;
14613;SDS011;7393;51.446;6.800;2023-02-12T03:52:18;55.70;;;33.00;;
14613;SDS011;7393;51.446;6.800;2023-02-12T03:54:45;51.50;;;32.03;;
14613;SDS011;7393;51.446;6.800;2023-02-12T03:57:13;57.47;;;31.30;;
14613;SDS011;7393;51.446;6.800;2023-02-12T03:59:43;50.93;;;31.93;;
14613;SDS011;7393;51.446;6.800;2023-02-12T04:02:10;54.73;;;32.10;;
14613;SDS011;7393;51.446;6.800;2023-02-12T04:04:38;50.40;;;31.50;;
14613;SDS011;7393;51.446;6.800;2023-02-12T04:07:06;53.03;;;32.27;;
14613;SDS011;7393;51.446;6.800;2023-02-12T04:09:33;57.23;;;34.07;;
14613;SDS011;7393;51.446;6.800;2023-02-12T04:12:07;51.27;;;31.87;;
14613;SDS011;7393;51.446;6.800;2023-02-12T04:14:54;52.73;;;32.37;;
14613;SDS011;7393;51.446;6.800;2023-02-12T04:17:31;58.97;;;34.73;;
14613;SDS011;7393;51.446;6.800;2023-02-12T04:20:10;52.70;;;31.90;;
14613;SDS011;7393;51.446;6.800;2023-02-12T04:22:49;55.60;;;32.67;;
14613;SDS011;7393;51.446;6.800;2023-02-12T04:25:28;55.23;;;32.53;;
14613;SDS011;7393;51.446;6.800;2023-02-12T04:28:08;60.00;;;34.03;;
14613;SDS011;7393;51.446;6.800;2023-02-12T04:30:41;54.17;;;32.43;;
14613;SDS011;7393;51.446;6.800;2023-02-12T04:33:13;56.70;;;32.70;;
14613;SDS011;7393;51.446;6.800;2023-02-12T04:35:46;56.07;;;32.33;;
14613;SDS011;7393;51.446;6.800;2023-02-12T04:38:18;49.10;;;31.33;;
14613;SDS011;7393;51.446;6.800;2023-02-12T04:40:48;53.60;;;32.87;;
14613;SDS011;7393;51.446;6.800;2023-02-12T04:43:24;52.27;;;32.20;;
14613;SDS011;7393;51.446;6.800;2023-02-12T04:45:52;53.00;;;31.53;;
14613;SDS011;7393;51.446;6.800;2023-02-12T04:48:19;53.33;;;32.07;;
14613;SDS011;7393;51.446;6.800;2023-02-12T04:50:46;54.40;;;33.10;;
14613;SDS011;7393;51.446;6.800;2023-02-12T04:53:14;53.83;;;31.77;;
14613;SDS011;7393;51.446;6.800;2023-02-12T04:55:42;50.33;;;32.00;;
14613;SDS011;7393;51.446;6.800;2023-02-12T04:58:09;51.93;;;32.50;;
14613;SDS011;7393;51.446;6.800;2023-02-12T05:00:36;50.07;;;31.20;;
14613;SDS011;7393;51.446;6.800;2023-02-12T05:03:03;51.67;;;31.00;;
14613;SDS011;7393;51.446;6.800;2023-02-12T05:05:30;50.90;;;31.00;;
14613;SDS011;7393;51.446;6.800;2023-02-12T05:07:56;51.77;;;31.33;;
14613;SDS011;7393;51.446;6.800;2023-02-12T05:10:23;53.37;;;31.83;;
14613;SDS011;7393;51.446;6.800;2023-02-12T05:12:52;50.23;;;30.73;;
14613;SDS011;7393;51.446;6.800;2023-02-12T05:15:19;54.23;;;33.10;;
14613;SDS011;7393;51.446;6.800;2023-02-12T05:17:46;52.80;;;31.33;;
14613;SDS011;7393;51.446;6.800;2023-02-12T05:20:13;51.80;;;30.73;;
14613;SDS011;7393;51.446;6.800;2023-02-12T05:22:40;51.00;;;30.67;;
14613;SDS011;7393;51.446;6.800;2023-02-12T05:25:07;50.97;;;31.50;;
14613;SDS011;7393;51.446;6.800;2023-02-12T05:27:34;49.80;;;30.90;;
14613;SDS011;7393;51.446;6.800;2023-02-12T05:30:02;49.47;;;30.90;;
14613;SDS011;7393;51.446;6.800;2023-02-12T05:32:29;46.93;;;29.30;;
14613;SDS011;7393;51.446;6.800;2023-02-12T05:34:56;49.47;;;30.53;;
14613;SDS011;7393;51.446;6.800;2023-02-12T05:37:23;52.17;;;31.47;;
14613;SDS011;7393;51.446;6.800;2023-02-12T05:39:50;49.80;;;31.33;;
14613;SDS011;7393;51.446;6.800;2023-02-12T05:42:17;51.07;;;31.03;;
14613;SDS011;7393;51.446;6.800;2023-02-12T05:44:44;49.17;;;29.93;;
14613;SDS011;7393;51.446;6.800;2023-02-12T05:47:12;52.13;;;31.50;;
14613;SDS011;7393;51.446;6.800;2023-02-12T05:49:39;43.97;;;27.87;;
14613;SDS011;7393;51.446;6.800;2023-02-12T05:52:06;46.30;;;29.97;;
14613;SDS011;7393;51.446;6.800;2023-02-12T05:54:33;50.00;;;30.93;;
14613;SDS011;7393;51.446;6.800;2023-02-12T05:57:00;53.27;;;31.20;;
14613;SDS011;7393;51.446;6.800;2023-02-12T05:59:27;50.53;;;29.97;;
14613;SDS011;7393;51.446;6.800;2023-02-12T06:01:54;50.70;;;30.93;;
14613;SDS011;7393;51.446;6.800;2023-02-12T06:04:23;48.07;;;29.97;;
14613;SDS011;7393;51.446;6.800;2023-02-12T06:06:52;50.97;;;30.17;;
14613;SDS011;7393;51.446;6.800;2023-02-12T06:09:20;47.00;;;29.33;;
14613;SDS011;7393;51.446;6.800;2023-02-12T06:11:47;44.47;;;29.70;;
14613;SDS011;7393;51.446;6.800;2023-02-12T06:14:15;46.97;;;29.53;;
14613;SDS011;7393;51.446;6.800;2023-02-12T06:16:44;47.30;;;29.83;;
14613;SDS011;7393;51.446;6.800;2023-02-12T06:19:11;51.00;;;30.07;;
14613;SDS011;7393;51.446;6.800;2023-02-12T06:21:40;50.70;;;30.47;;
14613;SDS011;7393;51.446;6.800;2023-02-12T06:24:07;46.47;;;29.20;;
14613;SDS011;7393;51.446;6.800;2023-02-12T06:26:34;47.73;;;30.03;;
14613;SDS011;7393;51.446;6.800;2023-02-12T06:29:01;47.53;;;29.63;;
14613;SDS011;7393;51.446;6.800;2023-02-12T06:31:28;48.57;;;29.70;;
14613;SDS011;7393;51.446;6.800;2023-02-12T06:33:56;46.33;;;29.37;;
14613;SDS011;7393;51.446;6.800;2023-02-12T06:36:25;51.60;;;31.23;;
14613;SDS011;7393;51.446;6.800;2023-02-12T06:38:54;48.70;;;29.40;;
14613;SDS011;7393;51.446;6.800;2023-02-12T06:41:21;43.50;;;27.90;;
14613;SDS011;7393;51.446;6.800;2023-02-12T06:43:48;45.97;;;29.10;;
14613;SDS011;7393;51.446;6.800;2023-02-12T06:46:16;48.43;;;29.40;;
14613;SDS011;7393;51.446;6.800;2023-02-12T06:48:43;49.23;;;29.37;;
14613;SDS011;7393;51.446;6.800;2023-02-12T06:51:10;45.50;;;28.57;;
14613;SDS011;7393;51.446;6.800;2023-02-12T06:53:38;49.93;;;29.57;;
14613;SDS011;7393;51.446;6.800;2023-02-12T06:56:07;47.83;;;28.90;;
14613;SDS011;7393;51.446;6.800;2023-02-12T06:58:37;48.57;;;30.53;;
14613;SDS011;7393;51.446;6.800;2023-02-12T07:01:08;48.23;;;28.70;;
14613;SDS011;7393;51.446;6.800;2023-02-12T07:03:37;47.50;;;28.33;;
14613;SDS011;7393;51.446;6.800;2023-02-12T07:06:04;43.50;;;27.63;;
14613;SDS011;7393;51.446;6.800;2023-02-12T07:08:31;48.33;;;29.40;;
14613;SDS011;7393;51.446;6.800;2023-02-12T07:10:58;47.60;;;29.53;;
14613;SDS011;7393;51.446;6.800;2023-02-12T07:13:26;46.37;;;29.33;;
14613;SDS011;7393;51.446;6.800;2023-02-12T07:15:53;47.73;;;29.80;;
14613;SDS011;7393;51.446;6.800;2023-02-12T07:18:20;49.97;;;30.63;;
14613;SDS011;7393;51.446;6.800;2023-02-12T07:20:47;51.53;;;31.47;;
14613;SDS011;7393;51.446;6.800;2023-02-12T07:23:14;48.60;;;29.70;;
14613;SDS011;7393;51.446;6.800;2023-02-12T07:25:40;50.10;;;30.90;;
14613;SDS011;7393;51.446;6.800;2023-02-12T07:28:07;47.93;;;29.97;;
14613;SDS011;7393;51.446;6.800;2023-02-12T07:30:35;52.70;;;30.63;;
14613;SDS011;7393;51.446;6.800;2023-02-12T07:33:02;48.27;;;31.47;;
14613;SDS011;7393;51.446;6.800;2023-02-12T07:35:29;50.37;;;30.33;;
14613;SDS011;7393;51.446;6.800;2023-02-12T07:37:57;53.00;;;31.57;;
14613;SDS011;7393;51.446;6.800;2023-02-12T07:40:23;49.90;;;30.63;;
14613;SDS011;7393;51.446;6.800;2023-02-12T07:42:53;50.80;;;31.33;;
14613;SDS011;7393;51.446;6.800;2023-02-12T07:45:20;56.83;;;32.07;;
14613;SDS011;7393;51.446;6.800;2023-02-12T07:47:48;49.03;;;30.53;;
14613;SDS011;7393;51.446;6.800;2023-02-12T07:50:15;55.23;;;32.13;;
14613;SDS011;7393;51.446;6.800;2023-02-12T07:52:42;54.00;;;32.37;;
14613;SDS011;7393;51.446;6.800;2023-02-12T07:55:09;53.00;;;31.73;;
14613;SDS011;7393;51.446;6.800;2023-02-12T07:57:36;52.30;;;32.40;;
14613;SDS011;7393;51.446;6.800;2023-02-12T08:00:03;47.03;;;30.83;;
14613;SDS011;7393;51.446;6.800;2023-02-12T08:02:31;51.03;;;31.27;;
14613;SDS011;7393;51.446;6.800;2023-02-12T08:04:59;51.13;;;30.83;;
14613;SDS011;7393;51.446;6.800;2023-02-12T08:07:26;51.20;;;31.73;;
14613;SDS011;7393;51.446;6.800;2023-02-12T08:09:53;53.97;;;30.77;;
14613;SDS011;7393;51.446;6.800;2023-02-12T08:12:19;48.13;;;31.27;;
14613;SDS011;7393;51.446;6.800;2023-02-12T08:14:47;50.30;;;31.10;;
14613;SDS011;7393;51.446;6.800;2023-02-12T08:17:14;53.13;;;32.17;;
14613;SDS011;7393;51.446;6.800;2023-02-12T08:19:41;51.80;;;31.37;;
14613;SDS011;7393;51.446;6.800;2023-02-12T08:22:09;50.43;;;31.60;;
14613;SDS011;7393;51.446;6.800;2023-02-12T08:24:36;48.67;;;30.53;;
14613;SDS011;7393;51.446;6.800;2023-02-12T08:27:03;51.83;;;32.03;;
14613;SDS011;7393;51.446;6.800;2023-02-12T08:29:30;51.20;;;31.40;;
14613;SDS011;7393;51.446;6.800;2023-02-12T08:31:58;53.53;;;31.87;;
14613;SDS011;7393;51.446;6.800;2023-02-12T08:34:26;56.10;;;32.60;;
14613;SDS011;7393;51.446;6.800;2023-02-12T08:36:54;52.40;;;31.67;;
14613;SDS011;7393;51.446;6.800;2023-02-12T08:39:23;53.97;;;32.70;;
14613;SDS011;7393;51.446;6.800;2023-02-12T08:41:52;53.77;;;30.97;;
14613;SDS011;7393;51.446;6.800;2023-02-12T08:44:19;53.73;;;32.37;;
14613;SDS011;7393;51.446;6.800;2023-02-12T08:46:47;52.47;;;32.03;;
14613;SDS011;7393;51.446;6.800;2023-02-12T08:49:15;54.43;;;33.73;;
14613;SDS011;7393;51.446;6.800;2023-02-12T08:51:44;52.80;;;32.10;;
14613;SDS011;7393;51.446;6.800;2023-02-12T08:54:13;60.47;;;33.37;;
14613;SDS011;7393;51.446;6.800;2023-02-12T08:56:43;53.57;;;32.13;;
14613;SDS011;7393;51.446;6.800;2023-02-12T08:59:11;54.53;;;33.30;;
14613;SDS011;7393;51.446;6.800;2023-02-12T09:01:39;52.83;;;32.17;;
14613;SDS011;7393;51.446;6.800;2023-02-12T09:04:07;53.47;;;31.83;;
14613;SDS011;7393;51.446;6.800;2023-02-12T09:06:39;54.40;;;32.33;;
14613;SDS011;7393;51.446;6.800;2023-02-12T09:09:06;57.43;;;32.93;;
14613;SDS011;7393;51.446;6.800;2023-02-12T09:11:32;54.67;;;34.03;;
14613;SDS011;7393;51.446;6.800;2023-02-12T09:14:02;53.33;;;31.97;;
14613;SDS011;7393;51.446;6.800;2023-02-12T09:16:31;58.13;;;34.63;;
14613;SDS011;7393;51.446;6.800;2023-02-12T09:18:59;56.23;;;34.10;;
14613;SDS011;7393;51.446;6.800;2023-02-12T09:21:26;59.33;;;34.93;;
14613;SDS011;7393;51.446;6.800;2023-02-12T09:23:53;57.93;;;34.70;;
14613;SDS011;7393;51.446;6.800;2023-02-12T09:26:21;54.87;;;33.30;;
14613;SDS011;7393;51.446;6.800;2023-02-12T09:28:49;56.80;;;33.83;;
14613;SDS011;7393;51.446;6.800;2023-02-12T09:31:19;58.53;;;36.47;;
14613;SDS011;7393;51.446;6.800;2023-02-12T09:33:50;54.73;;;35.23;;
14613;SDS011;7393;51.446;6.800;2023-02-12T09:36:17;60.30;;;35.77;;
14613;SDS011;7393;51.446;6.800;2023-02-12T09:38:44;57.53;;;34.90;;
14613;SDS011;7393;51.446;6.800;2023-02-12T09:41:17;58.07;;;35.07;;
14613;SDS011;7393;51.446;6.800;2023-02-12T09:44:19;56.87;;;35.43;;
14613;SDS011;7393;51.446;6.800;2023-02-12T09:46:53;55.50;;;34.23;;
14613;SDS011;7393;51.446;6.800;2023-02-12T09:49:27;53.80;;;35.37;;
14613;SDS011;7393;51.446;6.800;2023-02-12T09:52:08;54.93;;;34.93;;
14613;SDS011;7393;51.446;6.800;2023-02-12T09:54:41;54.97;;;35.37;;
14613;SDS011;7393;51.446;6.800;2023-02-12T09:57:11;55.67;;;34.77;;
14613;SDS011;7393;51.446;6.800;2023-02-12T09:59:44;52.53;;;34.33;;
14613;SDS011;7393;51.446;6.800;2023-02-12T10:02:17;51.60;;;32.57;;
14613;SDS011;7393;51.446;6.800;2023-02-12T10:04:45;51.47;;;31.90;;
14613;SDS011;7393;51.446;6.800;2023-02-12T10:07:17;48.13;;;31.37;;
14613;SDS011;7393;51.446;6.800;2023-02-12T10:09:59;51.57;;;31.40;;
14613;SDS011;7393;51.446;6.800;2023-02-12T10:12:35;48.93;;;31.30;;
14613;SDS011;7393;51.446;6.800;2023-02-12T10:18:00;51.73;;;33.90;;
14613;SDS011;7393;51.446;6.800;2023-02-12T10:20:39;50.70;;;30.57;;
14613;SDS011;7393;51.446;6.800;2023-02-12T10:23:24;43.93;;;29.13;;
14613;SDS011;7393;51.446;6.800;2023-02-12T10:26:02;47.63;;;30.97;;
14613;SDS011;7393;51.446;6.800;2023-02-12T10:28:37;47.60;;;30.83;;
14613;SDS011;7393;51.446;6.800;2023-02-12T10:31:06;46.87;;;31.17;;
14613;SDS011;7393;51.446;6.800;2023-02-12T10:33:40;44.03;;;29.83;;
14613;SDS011;7393;51.446;6.800;2023-02-12T10:36:10;45.30;;;29.57;;
14613;SDS011;7393;51.446;6.800;2023-02-12T10:38:44;47.83;;;31.37;;
14613;SDS011;7393;51.446;6.800;2023-02-12T10:41:14;43.77;;;30.13;;
14613;SDS011;7393;51.446;6.800;2023-02-12T10:43:42;48.90;;;30.73;;
14613;SDS011;7393;51.446;6.800;2023-02-12T10:46:11;49.87;;;30.53;;
14613;SDS011;7393;51.446;6.800;2023-02-12T10:48:42;43.43;;;28.63;;
14613;SDS011;7393;51.446;6.800;2023-02-12T10:51:17;40.07;;;26.37;;
14613;SDS011;7393;51.446;6.800;2023-02-12T10:53:55;42.07;;;28.73;;
14613;SDS011;7393;51.446;6.800;2023-02-12T10:56:22;42.67;;;27.83;;
14613;SDS011;7393;51.446;6.800;2023-02-12T10:58:51;42.50;;;27.63;;
14613;SDS011;7393;51.446;6.800;2023-02-12T11:01:21;37.80;;;25.57;;
14613;SDS011;7393;51.446;6.800;2023-02-12T11:03:52;40.00;;;26.30;;
14613;SDS011;7393;51.446;6.800;2023-02-12T11:06:20;37.57;;;25.40;;
14613;SDS011;7393;51.446;6.800;2023-02-12T11:08:48;36.53;;;25.07;;
14613;SDS011;7393;51.446;6.800;2023-02-12T11:11:19;42.47;;;26.67;;
14613;SDS011;7393;51.446;6.800;2023-02-12T11:13:52;38.40;;;25.97;;
14613;SDS011;7393;51.446;6.800;2023-02-12T11:16:25;39.27;;;25.67;;
14613;SDS011;7393;51.446;6.800;2023-02-12T11:18:58;35.83;;;24.70;;
14613;SDS011;7393;51.446;6.800;2023-02-12T11:21:27;36.77;;;25.47;;
14613;SDS011;7393;51.446;6.800;2023-02-12T11:23:53;39.63;;;26.63;;
14613;SDS011;7393;51.446;6.800;2023-02-12T11:26:25;38.97;;;25.47;;
14613;SDS011;7393;51.446;6.800;2023-02-12T11:28:54;38.03;;;25.67;;
14613;SDS011;7393;51.446;6.800;2023-02-12T11:31:23;38.40;;;26.63;;
14613;SDS011;7393;51.446;6.800;2023-02-12T11:36:44;42.10;;;27.33;;
14613;SDS011;7393;51.446;6.800;2023-02-12T11:39:16;40.90;;;27.27;;
14613;SDS011;7393;51.446;6.800;2023-02-12T11:41:48;38.73;;;26.57;;
14613;SDS011;7393;51.446;6.800;2023-02-12T11:44:17;37.47;;;24.93;;
14613;SDS011;7393;51.446;6.800;2023-02-12T11:46:46;42.20;;;27.33;;
14613;SDS011;7393;51.446;6.800;2023-02-12T11:49:16;40.10;;;26.80;;
14613;SDS011;7393;51.446;6.800;2023-02-12T11:51:49;37.83;;;26.43;;
14613;SDS011;7393;51.446;6.800;2023-02-12T11:54:17;39.67;;;24.77;;
14613;SDS011;7393;51.446;6.800;2023-02-12T11:56:47;39.67;;;25.23;;
14613;SDS011;7393;51.446;6.800;2023-02-12T11:59:20;36.57;;;24.47;;
14613;SDS011;7393;51.446;6.800;2023-02-12T12:01:54;39.67;;;25.70;;
14613;SDS011;7393;51.446;6.800;2023-02-12T12:04:24;36.03;;;24.43;;
14613;SDS011;7393;51.446;6.800;2023-02-12T12:06:56;39.60;;;25.67;;
14613;SDS011;7393;51.446;6.800;2023-02-12T12:09:28;38.63;;;24.77;;
14613;SDS011;7393;51.446;6.800;2023-02-12T12:12:03;40.73;;;25.23;;
14613;SDS011;7393;51.446;6.800;2023-02-12T12:14:38;38.63;;;25.33;;
14613;SDS011;7393;51.446;6.800;2023-02-12T12:17:33;36.80;;;24.70;;
14613;SDS011;7393;51.446;6.800;2023-02-12T12:20:24;35.33;;;23.10;;
14613;SDS011;7393;51.446;6.800;2023-02-12T12:22:58;36.23;;;24.23;;
14613;SDS011;7393;51.446;6.800;2023-02-12T12:25:29;33.90;;;24.13;;
14613;SDS011;7393;51.446;6.800;2023-02-12T12:28:04;35.93;;;24.73;;
14613;SDS011;7393;51.446;6.800;2023-02-12T12:33:30;36.97;;;24.20;;
14613;SDS011;7393;51.446;6.800;2023-02-12T12:36:11;35.73;;;23.43;;
14613;SDS011;7393;51.446;6.800;2023-02-12T12:38:58;38.77;;;25.53;;
14613;SDS011;7393;51.446;6.800;2023-02-12T12:41:34;41.33;;;26.70;;
14613;SDS011;7393;51.446;6.800;2023-02-12T12:44:17;38.43;;;24.77;;
14613;SDS011;7393;51.446;6.800;2023-02-12T12:46:56;35.93;;;23.93;;
14613;SDS011;7393;51.446;6.800;2023-02-12T12:49:40;34.83;;;23.70;;
14613;SDS011;7393;51.446;6.800;2023-02-12T12:52:19;39.47;;;26.23;;
14613;SDS011;7393;51.446;6.800;2023-02-12T12:55:10;37.37;;;24.20;;
14613;SDS011;7393;51.446;6.800;2023-02-12T12:57:58;37.83;;;25.00;;
14613;SDS011;7393;51.446;6.800;2023-02-12T13:00:35;38.60;;;26.00;;
14613;SDS011;7393;51.446;6.800;2023-02-12T13:03:19;38.03;;;24.27;;
14613;SDS011;7393;51.446;6.800;2023-02-12T13:06:12;37.53;;;24.73;;
14613;SDS011;7393;51.446;6.800;2023-02-12T13:11:52;35.50;;;24.90;;
14613;SDS011;7393;51.446;6.800;2023-02-12T13:14:37;39.10;;;25.23;;
14613;SDS011;7393;51.446;6.800;2023-02-12T13:17:10;37.67;;;25.87;;
14613;SDS011;7393;51.446;6.800;2023-02-12T13:19:44;40.30;;;26.70;;
14613;SDS011;7393;51.446;6.800;2023-02-12T13:22:20;35.17;;;24.40;;
14613;SDS011;7393;51.446;6.800;2023-02-12T13:24:52;38.97;;;25.50;;
14613;SDS011;7393;51.446;6.800;2023-02-12T13:27:25;35.47;;;23.70;;
14613;SDS011;7393;51.446;6.800;2023-02-12T13:29:57;38.93;;;25.23;;
14613;SDS011;7393;51.446;6.800;2023-02-12T13:32:31;38.27;;;25.53;;
14613;SDS011;7393;51.446;6.800;2023-02-12T13:35:03;37.83;;;25.23;;
14613;SDS011;7393;51.446;6.800;2023-02-12T13:37:33;38.97;;;25.80;;
14613;SDS011;7393;51.446;6.800;2023-02-12T13:40:03;35.23;;;24.83;;
14613;SDS011;7393;51.446;6.800;2023-02-12T13:42:38;32.67;;;22.90;;
14613;SDS011;7393;51.446;6.800;2023-02-12T13:45:16;40.97;;;26.00;;
14613;SDS011;7393;51.446;6.800;2023-02-12T13:47:52;34.40;;;24.27;;
14613;SDS011;7393;51.446;6.800;2023-02-12T13:50:31;38.83;;;25.17;;
14613;SDS011;7393;51.446;6.800;2023-02-12T13:53:06;35.73;;;24.13;;
14613;SDS011;7393;51.446;6.800;2023-02-12T13:55:49;35.67;;;23.77;;
14613;SDS011;7393;51.446;6.800;2023-02-12T13:58:44;35.10;;;22.07;;
14613;SDS011;7393;51.446;6.800;2023-02-12T14:06:53;35.70;;;23.23;;
14613;SDS011;7393;51.446;6.800;2023-02-12T14:09:23;37.07;;;23.13;;
14613;SDS011;7393;51.446;6.800;2023-02-12T14:11:59;35.30;;;22.57;;
14613;SDS011;7393;51.446;6.800;2023-02-12T14:14:30;34.37;;;22.90;;
14613;SDS011;7393;51.446;6.800;2023-02-12T14:20:05;31.47;;;21.33;;
14613;SDS011;7393;51.446;6.800;2023-02-12T14:25:37;33.13;;;22.70;;
14613;SDS011;7393;51.446;6.800;2023-02-12T14:28:12;32.17;;;21.67;;
14613;SDS011;7393;51.446;6.800;2023-02-12T14:31:17;32.83;;;21.63;;
14613;SDS011;7393;51.446;6.800;2023-02-12T14:37:10;34.17;;;21.97;;
14613;SDS011;7393;51.446;6.800;2023-02-12T14:39:41;34.97;;;22.03;;
14613;SDS011;7393;51.446;6.800;2023-02-12T14:47:55;34.17;;;21.23;;
14613;SDS011;7393;51.446;6.800;2023-02-12T14:50:23;31.70;;;22.43;;
14613;SDS011;7393;51.446;6.800;2023-02-12T14:52:55;36.60;;;23.20;;
14613;SDS011;7393;51.446;6.800;2023-02-12T14:55:30;34.90;;;22.40;;
14613;SDS011;7393;51.446;6.800;2023-02-12T14:58:00;31.50;;;22.47;;
14613;SDS011;7393;51.446;6.800;2023-02-12T15:00:31;30.67;;;21.27;;
14613;SDS011;7393;51.446;6.800;2023-02-12T15:03:04;34.80;;;23.13;;
14613;SDS011;7393;51.446;6.800;2023-02-12T15:05:41;30.57;;;21.77;;
14613;SDS011;7393;51.446;6.800;2023-02-12T15:08:14;34.60;;;21.37;;
14613;SDS011;7393;51.446;6.800;2023-02-12T15:10:51;34.17;;;22.90;;
14613;SDS011;7393;51.446;6.800;2023-02-12T15:13:23;34.57;;;22.50;;
14613;SDS011;7393;51.446;6.800;2023-02-12T15:15:54;32.33;;;21.23;;
14613;SDS011;7393;51.446;6.800;2023-02-12T15:18:28;31.03;;;21.60;;
14613;SDS011;7393;51.446;6.800;2023-02-12T15:21:05;36.50;;;23.27;;
14613;SDS011;7393;51.446;6.800;2023-02-12T15:23:40;31.03;;;21.73;;
14613;SDS011;7393;51.446;6.800;2023-02-12T15:26:11;31.03;;;21.10;;
14613;SDS011;7393;51.446;6.800;2023-02-12T15:28:44;30.57;;;21.10;;
14613;SDS011;7393;51.446;6.800;2023-02-12T15:31:14;32.40;;;20.90;;